Flight Track Log - Related Links

Times and Time Zones

All times are in EDT time to prevent confusion due to time zone crossing. See the SWA3313 flight status page for this flight to view local times or setup timezone preferences in your user account.

Time Position Orientation Groundspeed Altitude Reporting Facility
EDT Latitude Longitude Course Direction KTS MPH feet Rate Location/Type
Sat 02:50:40 PM 42.7756 -73.8231 268° West 178 205 2,100  Level Boston Center
Sat 02:51:34 PM 42.7733 -73.8936 268° West 212 244 3,900 2,769 Climbing Boston Center
Sat 02:52:37 PM 42.7708 -73.9908 268° West 255 293 7,500 3,339 Climbing Boston Center
Sat 02:53:38 PM 42.7394 -74.0822 245° Southwest 267 307 10,800 3,000 Climbing Boston Center
Sat 02:54:39 PM 42.6589 -74.0847 181° South 332 382 13,600 3,049 Climbing Boston Center
Sat 02:55:40 PM 42.5725 -74.0306 155° Southeast 342 394 17,000 2,683 Climbing Boston Center
Sat 02:56:42 PM 42.4889 -73.9869 159° South 353 406 19,100 2,410 Climbing Boston Center
Sat 02:57:42 PM 42.3936 -73.9344 158° South 367 422 21,900 3,025 Climbing Boston Center
Sat 02:58:43 PM 42.2719 -73.8869 164° South 383 441 25,200 2,579 Climbing Boston Center
Sat 02:59:43 PM 42.1731 -73.9211 194° South 376 433 27,100 1,388 Climbing Boston Center
Sat 03:00:44 PM 42.0703 -73.9572 195° South 377 434 28,000 432 Climbing Boston Center
Sat 03:01:48 PM 41.9656 -73.9939 195° South 385 443 28,000 576 Level Boston Center
Sat 03:02:49 PM 41.8600 -74.0308 195° South 387 445 29,200 1,587 Climbing Boston Center
Sat 03:03:49 PM 41.7386 -74.0739 195° South 405 466 31,200 2,083 Climbing Boston Center
Sat 03:04:50 PM 41.6303 -74.1108 194° South 406 467 33,400 1,983 Climbing Boston Center
Sat 03:05:50 PM 41.5250 -74.1475 195° South 397 457 35,200 1,548 Climbing Boston Center
Sat 03:06:54 PM 41.4200 -74.1853 195° South 395 455 36,600 1,400 Climbing Boston Center
Sat 03:07:50 PM 41.3367 -74.2775 220° Southwest 370 426 38,000 724 Climbing New York Center
Sat 03:08:50 PM 41.2694 -74.3594 223° Southwest 370 426 38,000  Level New York Center
Sat 03:09:50 PM 41.1981 -74.4439 222° Southwest 365 420 38,000  Level New York Center
Sat 03:10:50 PM 41.1181 -74.5442 223° Southwest 360 414 38,000  Level New York Center
Sat 03:11:50 PM 41.0486 -74.6283 222° Southwest 360 414 38,000  Level New York Center
Sat 03:12:50 PM 40.9767 -74.7206 224° Southwest 354 407 38,000  Level New York Center
Sat 03:13:50 PM 40.9050 -74.8097 223° Southwest 354 407 38,000  Level New York Center
Sat 03:14:50 PM 40.8356 -74.8933 222° Southwest 354 407 38,000  Level New York Center
Sat 03:15:50 PM 40.7636 -74.9822 223° Southwest 354 407 38,000  Level New York Center
Sat 03:16:50 PM 40.6939 -75.0656 222° Southwest 354 407 38,000  Level New York Center
Sat 03:17:50 PM 40.6219 -75.1539 223° Southwest 354 407 38,000  Level New York Center
Sat 03:18:50 PM 40.5478 -75.2447 223° Southwest 354 407 38,000  Level New York Center
Sat 03:19:50 PM 40.4775 -75.3331 224° Southwest 354 407 38,000  Level New York Center
Sat 03:20:50 PM 40.4011 -75.4233 222° Southwest 354 407 38,000  Level New York Center
Sat 03:21:50 PM 40.3311 -75.5083 223° Southwest 354 407 38,000  Level New York Center
Sat 03:22:50 PM 40.2567 -75.5958 222° Southwest 354 407 38,000  Level New York Center
Sat 03:23:50 PM 40.1839 -75.6886 224° Southwest 354 407 38,000  Level New York Center
Sat 03:25:53 PM 40.0383 -75.8569 222° Southwest 356 410 38,000  Level Washington Center
Sat 03:26:53 PM 39.9653 -75.9461 223° Southwest 361 415 38,000  Level Washington Center
Sat 03:27:52 PM 39.8919 -76.0322 222° Southwest 361 415 38,000  Level Washington Center
Sat 03:28:53 PM 39.8186 -76.1183 222° Southwest 361 415 38,000  Level Washington Center
Sat 03:29:53 PM 39.7433 -76.2042 221° Southwest 361 415 38,000  Level Washington Center
Sat 03:30:54 PM 39.6700 -76.2869 221° Southwest 356 410 38,000  Level Washington Center
Sat 03:31:52 PM 39.6006 -76.3700 223° Southwest 350 403 38,000  Level Washington Center
Sat 03:32:53 PM 39.5292 -76.4525 222° Southwest 350 403 38,000  Level Washington Center
Sat 03:33:53 PM 39.4578 -76.5322 221° Southwest 350 403 38,000  Level Washington Center
Sat 03:34:52 PM 39.3925 -76.6067 221° Southwest 350 403 38,000  Level Washington Center
Sat 03:35:52 PM 39.3253 -76.6836 222° Southwest 343 395 38,000  Level Washington Center
Sat 03:36:53 PM 39.2558 -76.7656 222° Southwest 343 395 38,000  Level Washington Center
Sat 03:37:53 PM 39.1842 -76.8475 222° Southwest 343 395 38,000  Level Washington Center
Sat 03:38:51 PM 39.1144 -76.9264 221° Southwest 343 395 38,000  Level Washington Center
Sat 03:39:53 PM 39.0447 -77.0053 221° Southwest 338 389 38,000  Level Washington Center
Sat 03:40:53 PM 38.9750 -77.0869 222° Southwest 343 395 38,000  Level Washington Center
Sat 03:41:54 PM 38.9053 -77.1628 220° Southwest 343 395 38,000  Level Washington Center
Sat 03:42:54 PM 38.8333 -77.2439 221° Southwest 343 395 38,000  Level Washington Center
Sat 03:43:52 PM 38.7633 -77.3222 221° Southwest 343 395 38,000  Level Washington Center
Sat 03:44:52 PM 38.6933 -77.4003 221° Southwest 343 395 38,000  Level Washington Center
Sat 03:45:54 PM 38.6256 -77.4783 222° Southwest 343 395 38,000  Level Washington Center
Sat 03:46:54 PM 38.5533 -77.5564 220° Southwest 343 395 38,000  Level Washington Center
Sat 03:47:54 PM 38.4853 -77.6339 222° Southwest 343 395 38,000  Level Washington Center
Sat 03:48:53 PM 38.4153 -77.7117 221° Southwest 343 395 38,000  Level Washington Center
Sat 03:49:52 PM 38.3450 -77.7889 221° Southwest 343 395 38,000  Level Washington Center
Sat 03:50:53 PM 38.2706 -77.8714 221° Southwest 343 395 38,000  Level Washington Center
Sat 03:51:53 PM 38.2003 -77.9486 221° Southwest 343 395 38,000  Level Washington Center
Sat 03:52:54 PM 38.1297 -78.0281 222° Southwest 343 395 38,000  Level Washington Center
Sat 03:53:52 PM 38.0572 -78.1050 220° Southwest 343 395 38,000  Level Washington Center
Sat 03:54:53 PM 37.9847 -78.1817 220° Southwest 343 395 38,000  Level Washington Center
Sat 03:55:52 PM 37.9208 -78.2453 218° Southwest 338 389 38,000  Level Washington Center
Sat 03:56:53 PM 37.8419 -78.3186 216° Southwest 344 396 38,000  Level Washington Center
Sat 03:57:53 PM 37.7653 -78.3922 217° Southwest 349 402 38,000  Level Washington Center
Sat 03:58:54 PM 37.6883 -78.4653 217° Southwest 349 402 38,000  Level Washington Center
Sat 03:59:53 PM 37.6008 -78.5458 216° Southwest 349 402 38,000  Level Washington Center
Sat 04:00:54 PM 37.5217 -78.6242 218° Southwest 349 402 38,000  Level Washington Center
Sat 04:01:54 PM 37.4428 -78.6942 215° Southwest 349 402 38,000  Level Washington Center
Sat 04:02:54 PM 37.3594 -78.7717 216° Southwest 355 409 38,000  Level Washington Center
Sat 04:03:54 PM 37.2758 -78.8492 216° Southwest 367 422 38,000  Level Washington Center
Sat 04:04:52 PM 37.1967 -78.9242 217° Southwest 382 440 38,000  Level Washington Center
Sat 04:05:53 PM 37.1111 -79.0036 217° Southwest 382 440 38,000  Level Washington Center
Sat 04:06:52 PM 37.0253 -79.0806 216° Southwest 387 445 38,000  Level Washington Center
Sat 04:07:53 PM 36.9417 -79.1600 217° Southwest 387 445 38,000  Level Washington Center
Sat 04:08:54 PM 36.8558 -79.2389 216° Southwest 387 445 38,000  Level Washington Center
Sat 04:09:52 PM 36.7614 -79.3253 216° Southwest 387 445 38,000  Level Washington Center
Sat 04:10:52 PM 36.6775 -79.4042 217° Southwest 387 445 38,000  Level Washington Center
Sat 04:11:52 PM 36.5917 -79.4800 215° Southwest 387 445 38,000  Level Washington Center
Sat 04:14:52 PM 36.3447 -79.7031 216° Southwest 384 442 38,000  Level Atlanta Center
Sat 04:15:52 PM 36.2658 -79.7769 217° Southwest 372 428 38,000  Level Atlanta Center
Sat 04:16:52 PM 36.1808 -79.8508 215° Southwest 360 414 38,000  Level Atlanta Center
Sat 04:17:52 PM 36.0878 -79.9353 216° Southwest 366 421 38,000  Level Atlanta Center
Sat 04:18:52 PM 35.9958 -79.9992 209° Southwest 366 421 38,000  Level Atlanta Center
Sat 04:19:52 PM 35.9017 -80.0472 202° Southwest 372 428 38,000  Level Atlanta Center
Sat 04:20:52 PM 35.8050 -80.0956 202° Southwest 377 434 38,000  Level Atlanta Center
Sat 04:21:52 PM 35.7189 -80.1406 203° Southwest 362 417 38,000  Level Atlanta Center
Sat 04:22:52 PM 35.6075 -80.1817 197° South 362 417 38,000  Level Atlanta Center
Sat 04:23:52 PM 35.5083 -80.2119 194° South 362 417 38,000  Level Atlanta Center
Sat 04:24:52 PM 35.4092 -80.2419 194° South 362 417 38,000  Level Atlanta Center
Sat 04:28:23 PM 35.0561 -80.3517 194° South 370 426 38,000  Level Jacksonville Center
Sat 04:29:23 PM 34.9650 -80.3772 193° South 375 432 38,000  Level Jacksonville Center
Sat 04:30:23 PM 34.8675 -80.4081 195° South 375 432 38,000  Level Jacksonville Center
Sat 04:31:23 PM 34.7764 -80.4383 195° South 369 425 38,000  Level Jacksonville Center
Sat 04:32:23 PM 34.6767 -80.4639 192° South 359 413 38,000  Level Jacksonville Center
Sat 04:33:23 PM 34.5792 -80.4944 194° South 359 413 38,000  Level Jacksonville Center
Sat 04:34:23 PM 34.4839 -80.5222 194° South 359 413 38,000  Level Jacksonville Center
Sat 04:35:23 PM 34.3886 -80.5525 195° South 359 413 38,000  Level Jacksonville Center
Sat 04:36:23 PM 34.2953 -80.5828 195° South 359 413 38,000  Level Jacksonville Center
Sat 04:37:23 PM 34.2039 -80.6078 193° South 354 407 38,000  Level Jacksonville Center
Sat 04:38:23 PM 34.1106 -80.6353 194° South 354 407 38,000  Level Jacksonville Center
Sat 04:39:23 PM 34.0211 -80.6625 194° South 348 400 38,000  Level Jacksonville Center
Sat 04:40:23 PM 33.9319 -80.6875 193° South 343 395 38,000  Level Jacksonville Center
Sat 04:41:23 PM 33.8364 -80.7147 193° South 343 395 38,000  Level Jacksonville Center
Sat 04:42:23 PM 33.7450 -80.7419 194° South 343 395 38,000  Level Jacksonville Center
Sat 04:43:23 PM 33.6517 -80.7692 194° South 343 395 38,000  Level Jacksonville Center
Sat 04:44:23 PM 33.5603 -80.7964 194° South 343 395 38,000  Level Jacksonville Center
Sat 04:45:23 PM 33.4667 -80.8236 194° South 343 395 38,000  Level Jacksonville Center
Sat 04:46:23 PM 33.3714 -80.8531 194° South 343 395 38,000  Level Jacksonville Center
Sat 04:47:23 PM 33.2756 -80.8800 193° South 348 400 38,000  Level Jacksonville Center
Sat 04:48:23 PM 33.1822 -80.9069 194° South 348 400 38,000  Level Jacksonville Center
Sat 04:49:23 PM 33.0886 -80.9314 192° South 354 407 38,000  Level Jacksonville Center
Sat 04:50:23 PM 32.9931 -80.9608 194° South 354 407 38,000  Level Jacksonville Center
Sat 04:51:23 PM 32.8994 -80.9875 193° South 354 407 38,000  Level Jacksonville Center
Sat 04:52:23 PM 32.8019 -81.0142 193° South 354 407 38,000  Level Jacksonville Center
Sat 04:53:23 PM 32.7125 -81.0383 193° South 359 413 38,000  Level Jacksonville Center
Sat 04:54:23 PM 32.6086 -81.0725 195° South 354 407 38,000  Level Jacksonville Center
Sat 04:55:23 PM 32.5006 -81.1019 193° South 360 414 38,000  Level Jacksonville Center
Sat 04:56:23 PM 32.3964 -81.1283 192° South 375 432 38,000  Level Jacksonville Center
Sat 04:57:23 PM 32.2944 -81.1600 195° South 375 432 38,000  Level Jacksonville Center
Sat 04:58:23 PM 32.1947 -81.1864 193° South 375 432 38,000  Level Jacksonville Center
Sat 04:59:23 PM 32.0906 -81.1981 185° South 375 432 38,000  Level Jacksonville Center
Sat 05:00:23 PM 31.9839 -81.1953 179° South 381 438 38,000  Level Jacksonville Center
Sat 05:01:23 PM 31.8753 -81.1922 179° South 386 444 38,000  Level Jacksonville Center
Sat 05:02:23 PM 31.7689 -81.1894 179° South 386 444 38,000  Level Jacksonville Center
Sat 05:03:23 PM 31.6747 -81.1861 178° South 381 438 38,000  Level Jacksonville Center
Sat 05:04:23 PM 31.5578 -81.1833 179° South 386 444 38,000  Level Jacksonville Center
Sat 05:05:23 PM 31.4533 -81.1781 178° South 386 444 38,000 -350 Level Jacksonville Center
Sat 05:06:23 PM 31.3447 -81.1775 180° South 386 444 37,300 -800 Descending Jacksonville Center
Sat 05:07:23 PM 31.2319 -81.1747 179° South 396 456 36,400 -950 Descending Jacksonville Center
Sat 05:08:23 PM 31.1150 -81.1722 179° South 409 471 35,400 -950 Descending Jacksonville Center
Sat 05:09:23 PM 30.9981 -81.1644 177° South 422 486 34,500 -700 Descending Jacksonville Center
Sat 05:10:23 PM 30.8792 -81.1619 179° South 422 486 34,000 -250 Descending Jacksonville Center
Sat 05:11:23 PM 30.7619 -81.1592 179° South 422 486 34,000 -250 Level Jacksonville Center
Sat 05:12:23 PM 30.6450 -81.1542 178° South 422 486 33,500 -750 Descending Jacksonville Center
Sat 05:13:23 PM 30.5281 -81.1514 179° South 422 486 32,500 -1,000 Descending Jacksonville Center
Sat 05:14:23 PM 30.4111 -81.1464 178° South 422 486 31,500 -1,000 Descending Jacksonville Center
Sat 05:15:23 PM 30.2900 -81.1436 179° South 422 486 30,500 -850 Descending Jacksonville Center
Sat 05:16:23 PM 30.1689 -81.1411 179° South 427 491 29,800 -850 Descending Jacksonville Center
Sat 05:17:23 PM 30.0478 -81.1386 179° South 432 497 28,800 -1,100 Descending Jacksonville Center
Sat 05:18:23 PM 29.9328 -81.1358 179° South 432 497 27,600 -1,100 Descending Jacksonville Center
Sat 05:19:23 PM 29.8242 -81.1306 178° South 416 479 26,600 -1,250 Descending Jacksonville Center
Sat 05:20:23 PM 29.7158 -81.1300 180° South 400 460 25,100 -1,750 Descending Jacksonville Center
Sat 05:21:23 PM 29.6133 -81.1272 179° South 381 438 23,100 -1,850 Descending Jacksonville Center
Sat 05:22:23 PM 29.5214 -81.1242 178° South 376 433 21,400 -2,050 Descending Jacksonville Center
Sat 05:23:23 PM 29.4044 -81.1142 176° South 381 438 19,000 -2,300 Descending Jacksonville Center
Sat 05:24:23 PM 29.3000 -81.1139 180° South 382 440 16,800 -2,150 Descending Jacksonville Center
Sat 05:25:23 PM 29.2039 -81.1011 173° South 365 420 14,700 -2,050 Descending Jacksonville Center
Sat 05:26:23 PM 29.1036 -81.0958 177° South 367 422 12,700 -1,450 Descending Jacksonville Center
Sat 05:27:23 PM 29.0097 -81.0881 176° South 340 391 11,800 -1,050 Descending Jacksonville Center
Sat 05:28:23 PM 28.9236 -81.0683 169° South 321 369 10,600 -1,137 Descending Jacksonville Center
Sat 05:28:58 PM 28.8667 -81.0500 164° South 296 341 10,000 -1,326 Descending Orlando TRACON
Sat 05:29:58 PM 28.8000 -81.0500 180° South 288 331 8,500 -1,140 Descending Orlando TRACON
Sat 05:30:59 PM 28.7500 -81.1000 221° Southwest 227 261 7,700 -893 Descending Orlando TRACON
Sat 05:31:59 PM 28.7500 -81.1667 270° West 201 231 6,700 -1,100 Descending Orlando TRACON
Sat 05:32:59 PM 28.7333 -81.2167 249° West 180 207 5,500 -1,150 Descending Orlando TRACON
Sat 05:33:59 PM 28.7000 -81.2500 221° Southwest 186 214 4,400 -1,100 Descending Orlando TRACON
Sat 05:34:59 PM 28.6667 -81.2833 221° Southwest 165 190 3,300 -700 Descending Orlando TRACON
Sat 05:35:59 PM 28.6333 -81.2833 180° South 161 185 3,000 -250 Descending Orlando TRACON
Sat 05:36:59 PM 28.5833 -81.2833 180° South 143 165 2,800 -450 Descending Orlando TRACON
Sat 05:37:59 PM 28.5500 -81.2833 180° South 148 170 2,100 -750 Descending Orlando TRACON
Sat 05:38:59 PM 28.5000 -81.2833 180° South 125 144 1,300 -700 Descending Orlando TRACON
Sat 05:39:59 PM 28.4833 -81.2833 180° South 116 133 700 -600 Descending Orlando TRACON
Sat 05:41:00 PM 28.4294 -81.3090 185° South  Level Estimated
Sat 05:48:00 PM 28.4294 -81.3090 North  Level Estimated
Sat 05:49:00 PM 28.4294 -81.3090 185° South  Level Estimated
Sat 05:50:00 PM 28.4294 -81.3090 North  Level Estimated
Sat 05:51:00 PM 28.4294 -81.3090 185° South  Level Estimated

Login

Don't have an account? Register now (free) for customized features, flight alerts, and more!